METAR Formatted Surface Weather Observation
Issued by NWS

Home | Current Version | Previous Version | Text Only | Print | Product List | Glossary Off
Versions: 1 2 3 4 5 6 7 8 9 10 11 12 13

000
SAUS42 KTAE 191759
MTR1J0
METAR K1J0 191758Z AUTO VRB03KT 10SM CLR 14/03 A3016 RMK AO2 SLP196
T01440033 10144 20094 58013 $



USA.gov is the U.S. government's official web portal to all federal, state and local government web resources and services.